Time;durP1;ratioP1;P1;durP2;ratioP2;P2;SDS_P1;SDS_P2;PMS_P1;PMS_P2;Temp;Humidity;BMP_temperature;BMP_pressure;BME280_temperature;BME280_humidity;BME280_pressure;Samples;Min_cycle;Max_cycle;Signal;HPM_P1;HPM_P2
2021/07/26 00:01:53;;;;;;;13.82;4.70;;;;;19.20;100173.00;;;;5026112;28;20068;-76
2021/07/26 00:04:19;;;;;;;16.27;5.40;;;;;19.30;100167.00;;;;5026234;28;20049;-78
2021/07/26 00:06:46;;;;;;;13.02;5.30;;;;;19.20;100186.00;;;;5025268;28;20033;-75
2021/07/26 00:09:13;;;;;;;16.65;5.97;;;;;19.20;100170.00;;;;5012958;28;20037;-76
2021/07/26 00:11:39;;;;;;;17.40;4.85;;;;;19.00;100179.00;;;;5030162;28;20033;-77
2021/07/26 00:14:09;;;;;;;22.75;5.20;;;;;18.90;100184.00;;;;5030088;28;20025;-78
2021/07/26 00:16:36;;;;;;;10.95;5.10;;;;;18.80;100185.00;;;;5026970;28;20038;-76
2021/07/26 00:19:02;;;;;;;18.05;5.45;;;;;18.80;100173.00;;;;5043988;28;20030;-77
2021/07/26 00:21:29;;;;;;;12.80;4.80;;;;;18.70;100175.00;;;;5027423;28;20126;-77
2021/07/26 00:23:55;;;;;;;18.83;5.72;;;;;18.70;100169.00;;;;5029699;28;20412;-77
2021/07/26 00:26:24;;;;;;;16.70;5.22;;;;;18.60;100171.00;;;;5044849;28;20112;-77
2021/07/26 00:28:53;;;;;;;22.95;5.47;;;;;18.70;100181.00;;;;5029849;28;20033;-75
2021/07/26 00:31:21;;;;;;;21.98;5.32;;;;;18.70;100159.00;;;;5029546;28;20768;-76
2021/07/26 00:34:08;;;;;;;23.50;5.15;;;;;18.70;100186.00;;;;5029875;28;20025;-77
2021/07/26 00:36:46;;;;;;;13.18;4.90;;;;;18.70;100186.00;;;;5029349;28;20025;-76
2021/07/26 00:39:15;;;;;;;19.05;4.95;;;;;18.80;100185.00;;;;5029503;28;20125;-78
2021/07/26 00:41:43;;;;;;;16.90;5.57;;;;;18.70;100194.00;;;;5029234;28;20029;-77
2021/07/26 00:44:10;;;;;;;21.67;5.25;;;;;18.70;100173.00;;;;5029040;28;20030;-76
2021/07/26 00:46:37;;;;;;;25.90;4.88;;;;;18.90;100188.00;;;;5029450;28;20476;-79
2021/07/26 00:49:07;;;;;;;14.60;4.63;;;;;18.80;100183.00;;;;5027764;28;20140;-80
2021/07/26 00:51:35;;;;;;;22.98;5.50;;;;;18.70;100184.00;;;;5029804;28;20029;-77
2021/07/26 00:54:02;;;;;;;18.85;5.20;;;;;18.80;100171.00;;;;5030062;28;20047;-77
2021/07/26 00:56:29;;;;;;;30.48;5.88;;;;;19.00;100198.00;;;;5028071;28;20040;-78
2021/07/26 00:58:57;;;;;;;17.73;5.18;;;;;19.00;100197.00;;;;5027810;28;20447;-76
2021/07/26 01:01:24;;;;;;;13.23;4.93;;;;;19.10;100207.00;;;;5044703;28;20037;-76
2021/07/26 01:03:50;;;;;;;16.92;5.18;;;;;19.20;100201.00;;;;5029110;28;20061;-76
2021/07/26 01:06:17;;;;;;;16.08;4.97;;;;;19.30;100172.00;;;;5044514;28;20084;-78
2021/07/26 01:08:45;;;;;;;16.73;4.90;;;;;19.20;100204.00;;;;5051957;28;20048;-77
2021/07/26 01:11:12;;;;;;;13.15;4.13;;;;;19.30;100197.00;;;;5052865;28;20045;-76
2021/07/26 01:13:39;;;;;;;17.90;3.90;;;;;19.40;100170.00;;;;5040055;28;20025;-77
2021/07/26 01:16:06;;;;;;;18.27;4.57;;;;;19.50;100186.00;;;;5026740;28;20431;-79
2021/07/26 01:18:37;;;;;;;23.30;4.88;;;;;19.50;100188.00;;;;5026781;28;20036;-79
2021/07/26 01:21:13;;;;;;;10.85;4.28;;;;;19.60;100178.00;;;;5028956;28;20044;-76
2021/07/26 01:23:42;;;;;;;21.15;5.25;;;;;19.50;100196.00;;;;5028467;28;20124;-78
2021/07/26 01:26:12;;;;;;;16.85;4.70;;;;;19.40;100190.00;;;;5027049;28;20029;-78
2021/07/26 01:28:42;;;;;;;22.48;4.95;;;;;19.40;100190.00;;;;5028788;28;20626;-77
2021/07/26 01:31:10;;;;;;;19.55;5.72;;;;;19.30;100183.00;;;;5027514;28;20030;-76
2021/07/26 01:33:38;;;;;;;21.35;5.00;;;;;19.30;100199.00;;;;5026601;28;20188;-79
2021/07/26 01:36:05;;;;;;;22.35;5.30;;;;;19.40;100199.00;;;;5027236;28;20520;-77
2021/07/26 01:38:32;;;;;;;15.27;4.60;;;;;19.30;100188.00;;;;5028212;28;20033;-77
2021/07/26 01:41:03;;;;;;;19.48;4.88;;;;;19.50;100205.00;;;;5028876;28;20108;-78
2021/07/26 01:43:35;;;;;;;20.08;4.53;;;;;19.50;100206.00;;;;5044129;28;20033;-77
2021/07/26 01:46:07;;;;;;;;;;;;;19.40;100202.00;;;;5028190;28;20071;-78
2021/07/26 01:48:42;;;;;;;24.85;4.57;;;;;19.70;100196.00;;;;5028887;28;20078;-79
2021/07/26 01:51:17;;;;;;;13.73;4.57;;;;;19.60;100181.00;;;;5026990;28;20658;-77
2021/07/26 01:53:44;;;;;;;18.35;4.70;;;;;19.50;100183.00;;;;5028604;28;20037;-78
2021/07/26 01:56:14;;;;;;;16.98;4.78;;;;;19.60;100194.00;;;;5028276;28;20044;-78
2021/07/26 01:58:42;;;;;;;13.10;4.20;;;;;19.60;100182.00;;;;5028248;28;20040;-78
2021/07/26 02:01:09;;;;;;;12.15;4.57;;;;;19.70;100211.00;;;;5027897;28;20064;-79
2021/07/26 02:03:36;;;;;;;14.05;4.30;;;;;19.80;100195.00;;;;5028094;28;20057;-79
2021/07/26 02:06:02;;;;;;;12.27;4.38;;;;;19.80;100192.00;;;;5042951;28;20029;-78
2021/07/26 02:08:29;;;;;;;28.88;5.22;;;;;19.90;100194.00;;;;5026848;28;20167;-79
2021/07/26 02:10:55;;;;;;;13.10;4.50;;;;;19.80;100205.00;;;;5026562;28;20061;-76
2021/07/26 02:13:22;;;;;;;11.05;4.05;;;;;19.80;100194.00;;;;5026477;28;20072;-81
2021/07/26 02:15:48;;;;;;;14.05;4.57;;;;;19.80;100204.00;;;;5027508;28;20483;-78
2021/07/26 02:18:15;;;;;;;23.80;4.95;;;;;19.80;100189.00;;;;5028025;28;20057;-78
2021/07/26 02:20:41;;;;;;;13.25;4.25;;;;;19.80;100178.00;;;;5027949;28;20112;-77
2021/07/26 02:23:08;;;;;;;15.23;4.50;;;;;19.60;100195.00;;;;5026077;28;20037;-79
2021/07/26 02:25:35;;;;;;;11.15;4.55;;;;;19.80;100174.00;;;;5028046;28;20037;-77
2021/07/26 02:28:02;;;;;;;20.45;4.93;;;;;19.70;100208.00;;;;5026588;28;20040;-77
2021/07/26 02:30:28;;;;;;;18.02;4.90;;;;;19.60;100207.00;;;;5025770;28;20040;-76
2021/07/26 02:32:55;;;;;;;12.38;4.30;;;;;19.60;100191.00;;;;5027974;28;20029;-78
2021/07/26 02:35:21;;;;;;;16.20;4.75;;;;;19.50;100180.00;;;;5027283;28;20418;-75
2021/07/26 02:37:48;;;;;;;16.42;4.78;;;;;19.60;100192.00;;;;5026471;28;20352;-79
2021/07/26 02:40:14;;;;;;;18.23;4.57;;;;;19.50;100184.00;;;;5026952;28;20033;-76
2021/07/26 02:42:41;;;;;;;15.63;4.10;;;;;19.60;100193.00;;;;5027100;28;20032;-79
2021/07/26 02:45:08;;;;;;;15.32;4.10;;;;;19.70;100194.00;;;;5026799;28;20029;-79
2021/07/26 02:47:35;;;;;;;10.27;3.78;;;;;19.70;100177.00;;;;5027491;28;20036;-79
2021/07/26 02:50:01;;;;;;;9.23;4.60;;;;;19.60;100186.00;;;;5028020;28;20029;-77
2021/07/26 02:52:28;;;;;;;10.25;4.10;;;;;19.80;100186.00;;;;5027392;28;20469;-80
2021/07/26 02:54:54;;;;;;;14.93;4.32;;;;;19.60;100207.00;;;;5025867;28;20040;-76
2021/07/26 02:57:21;;;;;;;13.15;4.95;;;;;19.60;100199.00;;;;5025750;28;20080;-79
2021/07/26 02:59:47;;;;;;;13.27;4.25;;;;;19.50;100196.00;;;;5026803;28;20556;-78
2021/07/26 03:02:14;;;;;;;15.55;4.10;;;;;19.40;100208.00;;;;5027165;28;20040;-80
2021/07/26 03:04:41;;;;;;;19.60;3.90;;;;;19.30;100206.00;;;;5025684;28;20045;-76
2021/07/26 03:07:07;;;;;;;22.42;5.10;;;;;19.40;100202.00;;;;5026841;28;20028;-76
2021/07/26 03:09:34;;;;;;;15.88;4.13;;;;;19.20;100198.00;;;;5026876;28;20025;-79
2021/07/26 03:12:00;;;;;;;14.88;4.05;;;;;19.20;100208.00;;;;5027309;28;20091;-75
2021/07/26 03:14:29;;;;;;;8.75;4.03;;;;;19.20;100213.00;;;;5042134;28;20040;-76
2021/07/26 03:16:55;;;;;;;11.15;4.13;;;;;19.30;100198.00;;;;5026331;28;20041;-76
2021/07/26 03:19:22;;;;;;;15.73;4.05;;;;;19.20;100218.00;;;;5027081;28;20033;-77
2021/07/26 03:22:25;;;;;;;19.17;4.63;;;;;19.20;100220.00;;;;5025645;28;20029;-76
2021/07/26 03:24:52;;;;;;;10.82;4.20;;;;;19.30;100211.00;;;;5026603;28;20029;-77
2021/07/26 03:27:18;;;;;;;13.13;4.63;;;;;19.30;100216.00;;;;5027021;28;20134;-79
2021/07/26 03:29:45;;;;;;;21.05;4.45;;;;;19.20;100201.00;;;;5026564;28;20167;-79
2021/07/26 03:32:11;;;;;;;10.80;3.92;;;;;19.10;100191.00;;;;5027064;28;20025;-77
2021/07/26 03:34:38;;;;;;;19.67;4.00;;;;;18.90;100198.00;;;;5025891;28;20029;-77
2021/07/26 03:37:04;;;;;;;10.05;3.97;;;;;18.80;100212.00;;;;5026777;28;20120;-78
2021/07/26 03:39:31;;;;;;;14.95;4.60;;;;;18.80;100216.00;;;;5027029;28;20021;-77
2021/07/26 03:41:58;;;;;;;13.82;5.53;;;;;18.70;100225.00;;;;5026003;28;20041;-77
2021/07/26 03:44:25;;;;;;;8.35;4.40;;;;;18.90;100217.00;;;;5030725;28;20073;-79
2021/07/26 03:46:51;;;;;;;14.35;4.20;;;;;18.90;100198.00;;;;5045724;28;20033;-79
2021/07/26 03:49:18;;;;;;;8.25;3.88;;;;;19.10;100212.00;;;;5029136;28;20029;-77
2021/07/26 03:51:44;;;;;;;10.80;4.10;;;;;19.10;100213.00;;;;5030166;28;20405;-77
2021/07/26 03:54:11;;;;;;;10.57;4.13;;;;;19.10;100209.00;;;;5030440;28;20400;-77
2021/07/26 03:56:37;;;;;;;14.10;4.65;;;;;19.00;100198.00;;;;5045922;28;20037;-76
2021/07/26 03:59:04;;;;;;;13.15;4.32;;;;;19.00;100219.00;;;;5030639;28;20033;-78
2021/07/26 04:01:30;;;;;;;11.02;4.60;;;;;19.10;100196.00;;;;5030228;28;20506;-77
2021/07/26 04:03:57;;;;;;;12.55;4.15;;;;;18.90;100204.00;;;;5028979;28;20049;-77
2021/07/26 04:06:23;;;;;;;12.10;4.03;;;;;18.80;100198.00;;;;5045212;28;20038;-79
2021/07/26 04:08:52;;;;;;;8.77;3.80;;;;;18.90;100199.00;;;;5030234;28;20156;-77
2021/07/26 04:13:58;;;;;;;12.68;3.75;;;;;19.00;100214.00;;;;5029911;28;20030;-75
2021/07/26 04:16:25;;;;;;;12.13;4.15;;;;;18.90;100215.00;;;;5028773;28;20099;-78
2021/07/26 04:18:52;;;;;;;11.98;3.90;;;;;18.80;100226.00;;;;5045133;28;20120;-78
2021/07/26 04:21:19;;;;;;;17.08;4.57;;;;;19.00;100220.00;;;;5030705;28;20064;-77
2021/07/26 04:23:46;;;;;;;14.35;4.15;;;;;19.10;100233.00;;;;5045142;28;20038;-78
2021/07/26 04:26:12;;;;;;;16.73;4.30;;;;;19.20;100226.00;;;;5028906;28;20033;-79
2021/07/26 04:28:39;;;;;;;14.93;4.10;;;;;19.20;100223.00;;;;5044684;28;20021;-77
2021/07/26 04:31:07;;;;;;;12.60;3.58;;;;;19.10;100219.00;;;;5029628;28;20036;-80
2021/07/26 04:33:34;;;;;;;11.88;3.78;;;;;19.20;100233.00;;;;5029235;28;20033;-79
2021/07/26 04:36:01;;;;;;;10.32;3.95;;;;;19.30;100205.00;;;;5044579;28;20033;-78
2021/07/26 04:38:28;;;;;;;17.80;4.03;;;;;19.40;100217.00;;;;5029879;28;20021;-77
2021/07/26 04:40:54;;;;;;;15.18;4.03;;;;;19.40;100233.00;;;;5029457;28;20572;-79
2021/07/26 04:43:21;;;;;;;8.90;3.40;;;;;19.30;100226.00;;;;5029760;28;20033;-78
2021/07/26 04:45:47;;;;;;;15.60;4.25;;;;;19.10;100244.00;;;;5029598;28;20044;-79
2021/07/26 04:48:14;;;;;;;8.48;3.72;;;;;19.00;100239.00;;;;5044589;28;20032;-77
2021/07/26 04:50:40;;;;;;;11.80;4.05;;;;;19.10;100237.00;;;;5029159;28;20048;-79
2021/07/26 04:53:07;;;;;;;8.88;3.80;;;;;19.10;100259.00;;;;5029149;28;20033;-78
2021/07/26 04:55:33;;;;;;;10.05;3.90;;;;;19.10;100249.00;;;;5027789;28;20048;-78
2021/07/26 04:58:00;;;;;;;6.07;3.88;;;;;19.00;100252.00;;;;5027708;28;20033;-77
2021/07/26 05:00:27;;;;;;;15.43;3.92;;;;;19.00;100250.00;;;;5027680;28;20116;-77
2021/07/26 05:02:54;;;;;;;14.32;4.00;;;;;19.20;100256.00;;;;5029174;28;20028;-79
2021/07/26 05:05:20;;;;;;;7.00;3.72;;;;;19.20;100255.00;;;;5044353;28;20086;-77
2021/07/26 05:07:47;;;;;;;9.75;3.67;;;;;19.30;100225.00;;;;5029653;28;20451;-78
2021/07/26 05:10:13;;;;;;;14.18;3.40;;;;;19.20;100224.00;;;;5028902;28;20033;-78
2021/07/26 05:12:42;;;;;;;12.15;4.15;;;;;19.20;100229.00;;;;5028806;28;20040;-76
2021/07/26 05:15:10;;;;;;;11.68;3.78;;;;;19.30;100217.00;;;;5027632;28;20492;-78
2021/07/26 05:17:36;;;;;;;11.75;4.05;;;;;19.20;100234.00;;;;5029175;28;20536;-79
2021/07/26 05:20:03;;;;;;;11.98;3.85;;;;;19.10;100240.00;;;;5044261;28;20112;-79
2021/07/26 05:22:30;;;;;;;12.15;3.75;;;;;19.20;100214.00;;;;5028434;28;20033;-75
2021/07/26 05:24:56;;;;;;;9.13;4.13;;;;;19.10;100218.00;;;;5027220;28;20029;-78
2021/07/26 05:27:28;;;;;;;11.82;3.58;;;;;19.20;100225.00;;;;5028438;28;20545;-78
2021/07/26 05:29:54;;;;;;;12.52;3.85;;;;;19.20;100195.00;;;;5028881;28;20033;-77
2021/07/26 05:32:21;;;;;;;12.48;3.90;;;;;19.30;100189.00;;;;5028759;28;20033;-77
2021/07/26 05:34:48;;;;;;;6.40;3.50;;;;;19.30;100212.00;;;;5027357;28;20022;-75
2021/07/26 05:37:15;;;;;;;15.98;4.07;;;;;19.30;100198.00;;;;5028468;28;20033;-77
2021/07/26 05:39:41;;;;;;;8.55;3.50;;;;;19.40;100208.00;;;;5028462;28;20045;-79
2021/07/26 05:42:11;;;;;;;10.95;3.92;;;;;19.50;100184.00;;;;5027831;28;20025;-78
2021/07/26 05:44:42;;;;;;;10.93;3.83;;;;;19.40;100185.00;;;;5032568;28;20021;-77
2021/07/26 05:47:09;;;;;;;10.07;4.03;;;;;19.30;100201.00;;;;5045692;28;20034;-76
2021/07/26 05:49:36;;;;;;;12.95;4.32;;;;;19.40;100193.00;;;;5028403;28;20036;-76
2021/07/26 05:52:03;;;;;;;15.55;4.15;;;;;19.20;100223.00;;;;5027353;28;20033;-76
2021/07/26 05:54:30;;;;;;;6.63;3.35;;;;;19.20;100217.00;;;;5028247;28;20037;-78
2021/07/26 05:56:57;;;;;;;8.27;3.53;;;;;19.30;100218.00;;;;5027984;28;20087;-75
2021/07/26 05:59:23;;;;;;;15.40;4.05;;;;;19.20;100228.00;;;;5028285;28;20497;-78
2021/07/26 06:01:50;;;;;;;10.88;3.67;;;;;19.20;100228.00;;;;5028497;28;20574;-78
2021/07/26 06:04:17;;;;;;;15.13;3.67;;;;;19.30;100229.00;;;;5027155;28;20049;-77
2021/07/26 06:06:45;;;;;;;11.32;3.70;;;;;19.50;100200.00;;;;5026521;28;20045;-78
2021/07/26 06:09:12;;;;;;;15.75;3.95;;;;;19.50;100230.00;;;;5026497;28;20064;-76
2021/07/26 06:11:40;;;;;;;15.35;3.42;;;;;19.40;100211.00;;;;5026353;28;20517;-78
2021/07/26 06:14:08;;;;;;;13.32;4.20;;;;;19.40;100215.00;;;;5028127;28;20040;-80
2021/07/26 06:16:39;;;;;;;18.48;3.90;;;;;19.30;100207.00;;;;5028580;28;20108;-78
2021/07/26 06:19:09;;;;;;;10.10;4.13;;;;;19.30;100223.00;;;;5042983;28;20124;-78
2021/07/26 06:21:49;;;;;;;7.32;3.70;;;;;19.30;100206.00;;;;5027631;28;20033;-79
2021/07/26 06:24:18;;;;;;;10.23;4.00;;;;;19.30;100198.00;;;;5027611;28;20033;-80
2021/07/26 06:26:46;;;;;;;12.88;3.78;;;;;19.30;100211.00;;;;5026461;28;20112;-78
2021/07/26 06:29:12;;;;;;;9.00;4.05;;;;;19.40;100212.00;;;;5027960;28;20083;-77
2021/07/26 06:31:39;;;;;;;11.20;4.18;;;;;19.30;100198.00;;;;5028168;28;20732;-77
2021/07/26 06:34:06;;;;;;;13.82;4.05;;;;;19.30;100220.00;;;;5042384;28;20025;-79
2021/07/26 06:36:35;;;;;;;12.73;3.90;;;;;19.40;100211.00;;;;5027226;28;20037;-79
2021/07/26 06:39:03;;;;;;;10.30;3.47;;;;;19.30;100196.00;;;;5027874;28;20104;-77
2021/07/26 06:41:30;;;;;;;14.30;4.40;;;;;19.30;100207.00;;;;5043135;28;20104;-76
2021/07/26 06:43:57;;;;;;;13.38;3.97;;;;;19.30;100191.00;;;;5027059;28;20373;-77
2021/07/26 06:46:24;;;;;;;13.18;4.22;;;;;19.30;100211.00;;;;5026447;28;20456;-77
2021/07/26 06:48:50;;;;;;;10.25;4.07;;;;;19.30;100194.00;;;;5027676;28;20037;-79
2021/07/26 06:51:17;;;;;;;6.90;3.53;;;;;19.30;100186.00;;;;5026250;28;20403;-79
2021/07/26 06:53:44;;;;;;;10.27;3.95;;;;;19.30;100214.00;;;;5025728;28;20037;-77
2021/07/26 06:56:11;;;;;;;18.10;4.28;;;;;19.30;100195.00;;;;5027353;28;20049;-79
2021/07/26 06:58:39;;;;;;;10.95;3.75;;;;;19.40;100218.00;;;;5027219;28;20037;-76
2021/07/26 07:01:07;;;;;;;13.02;3.70;;;;;19.80;100180.00;;;;5026918;28;20060;-77
2021/07/26 07:03:34;;;;;;;16.52;4.35;;;;;20.30;100187.00;;;;5025641;28;20080;-78
2021/07/26 07:06:05;;;;;;;11.38;4.05;;;;;20.50;100191.00;;;;5027159;28;20068;-76
2021/07/26 07:08:31;;;;;;;8.15;3.55;;;;;20.20;100198.00;;;;5026862;28;20112;-79
2021/07/26 07:11:05;;;;;;;9.15;3.80;;;;;20.30;100206.00;;;;5026663;28;20036;-77
2021/07/26 07:13:36;;;;;;;10.95;3.97;;;;;20.40;100200.00;;;;5026788;28;20462;-75
2021/07/26 07:16:06;;;;;;;;;;;;;20.20;100204.00;;;;5025205;28;20037;-75
2021/07/26 07:18:33;;;;;;;11.43;3.75;;;;;19.90;100204.00;;;;5026750;28;20454;-76
2021/07/26 07:20:59;;;;;;;12.70;4.40;;;;;19.70;100200.00;;;;5026977;28;20026;-75
2021/07/26 07:23:26;;;;;;;15.57;4.25;;;;;19.70;100196.00;;;;5026743;28;20025;-78
2021/07/26 07:25:54;;;;;;;8.63;4.10;;;;;19.60;100201.00;;;;5026922;28;20129;-78
2021/07/26 07:28:21;;;;;;;8.93;4.25;;;;;20.00;100189.00;;;;5026346;28;20136;-77
2021/07/26 07:30:47;;;;;;;14.43;4.22;;;;;19.80;100179.00;;;;5041849;28;20033;-79
2021/07/26 07:33:14;;;;;;;9.80;4.15;;;;;19.50;100184.00;;;;5041914;28;20376;-79
2021/07/26 07:35:40;;;;;;;17.80;4.45;;;;;19.60;100191.00;;;;5025067;28;20033;-78
2021/07/26 07:38:08;;;;;;;10.75;3.92;;;;;19.40;100185.00;;;;5041374;28;20462;-78
2021/07/26 07:40:37;;;;;;;13.82;4.15;;;;;19.20;100179.00;;;;5025082;28;20390;-78
2021/07/26 07:43:05;;;;;;;11.35;4.03;;;;;19.20;100184.00;;;;5024881;28;20033;-78
2021/07/26 07:45:33;;;;;;;11.35;4.18;;;;;19.10;100187.00;;;;5025057;28;20171;-76
2021/07/26 07:48:01;;;;;;;11.65;4.78;;;;;19.00;100169.00;;;;5027047;28;20029;-75
2021/07/26 07:50:28;;;;;;;11.85;4.43;;;;;19.00;100176.00;;;;5026483;28;20026;-76
2021/07/26 07:52:55;;;;;;;10.05;3.95;;;;;18.90;100168.00;;;;5026383;28;20029;-79
2021/07/26 07:55:21;;;;;;;15.75;4.63;;;;;18.90;100168.00;;;;5026349;28;20038;-77
2021/07/26 07:57:52;;;;;;;12.20;4.13;;;;;18.90;100158.00;;;;5026277;28;20060;-79
2021/07/26 08:00:20;;;;;;;10.45;4.68;;;;;18.90;100159.00;;;;5026874;28;20177;-78
2021/07/26 08:02:47;;;;;;;17.42;4.53;;;;;18.70;100181.00;;;;5026426;28;20026;-75
2021/07/26 08:05:16;;;;;;;15.35;5.07;;;;;18.40;100181.00;;;;5027930;28;20025;-77
2021/07/26 08:07:43;;;;;;;14.15;5.53;;;;;18.10;100182.00;;;;5027197;28;20022;-75
2021/07/26 08:10:10;;;;;;;26.77;5.95;;;;;17.90;100182.00;;;;5026952;28;20076;-74
2021/07/26 08:12:37;;;;;;;21.23;5.95;;;;;17.70;100186.00;;;;5026880;28;20034;-77
2021/07/26 08:15:04;;;;;;;18.58;5.70;;;;;17.60;100190.00;;;;5041699;28;20069;-75
2021/07/26 08:17:30;;;;;;;9.73;5.65;;;;;17.60;100185.00;;;;5026465;28;20037;-75
2021/07/26 08:19:57;;;;;;;14.32;6.22;;;;;17.60;100193.00;;;;5026338;28;20396;-77
2021/07/26 08:22:23;;;;;;;18.65;6.60;;;;;17.60;100189.00;;;;5026972;28;20034;-75
2021/07/26 08:24:50;;;;;;;24.33;7.15;;;;;17.60;100206.00;;;;5025906;28;20071;-74
2021/07/26 08:27:16;;;;;;;10.65;5.93;;;;;17.70;100180.00;;;;5026474;28;20036;-78
2021/07/26 08:29:43;;;;;;;22.40;5.85;;;;;17.70;100179.00;;;;5030038;28;20064;-74
2021/07/26 08:32:09;;;;;;;14.90;5.85;;;;;17.80;100191.00;;;;5045337;28;20041;-75
2021/07/26 08:34:36;;;;;;;10.45;5.13;;;;;17.90;100190.00;;;;5030234;28;20029;-75
2021/07/26 08:37:03;;;;;;;15.60;5.70;;;;;17.90;100188.00;;;;5028325;28;20748;-75
2021/07/26 08:39:30;;;;;;;17.70;7.15;;;;;17.90;100206.00;;;;5044875;28;20033;-77
2021/07/26 08:41:57;;;;;;;13.60;5.75;;;;;17.80;100206.00;;;;5030001;28;20464;-75
2021/07/26 08:44:23;;;;;;;10.75;5.88;;;;;17.80;100230.00;;;;5030065;28;20419;-79
2021/07/26 08:46:53;;;;;;;10.30;5.82;;;;;17.90;100229.00;;;;5029913;28;20045;-77
2021/07/26 08:49:22;;;;;;;10.23;6.05;;;;;17.80;100209.00;;;;5044989;28;20083;-77
2021/07/26 08:51:51;;;;;;;23.30;5.93;;;;;17.70;100227.00;;;;5030089;28;20033;-78
2021/07/26 08:54:19;;;;;;;15.95;6.20;;;;;17.70;100255.00;;;;5029457;28;20033;-77
2021/07/26 08:56:46;;;;;;;15.43;6.70;;;;;17.70;100241.00;;;;5029542;28;20041;-75
2021/07/26 08:59:12;;;;;;;13.63;6.28;;;;;17.60;100236.00;;;;5029710;28;20029;-75
2021/07/26 09:01:42;;;;;;;21.85;7.68;;;;;17.60;100226.00;;;;5030066;28;20083;-74
2021/07/26 09:04:09;;;;;;;22.80;7.45;;;;;17.80;100237.00;;;;5045667;28;20160;-78
2021/07/26 09:06:37;;;;;;;19.48;6.93;;;;;17.80;100268.00;;;;5045066;28;20061;-75
2021/07/26 09:09:03;;;;;;;23.30;7.97;;;;;17.70;100256.00;;;;5030173;28;20033;-76
2021/07/26 09:11:46;;;;;;;12.20;6.78;;;;;17.70;100298.00;;;;5029568;28;20029;-76
2021/07/26 09:14:40;;;;;;;18.40;6.72;;;;;17.60;100304.00;;;;5030928;28;20029;-76
2021/07/26 09:17:09;;;;;;;21.77;8.23;;;;;17.60;100278.00;;;;5029872;28;20033;-75
2021/07/26 09:20:16;;;;;;;19.75;7.80;;;;;17.50;100272.00;;;;5029310;28;20032;-74
2021/07/26 09:22:46;;;;;;;13.18;7.05;;;;;17.50;100255.00;;;;5006504;28;20161;-76
2021/07/26 09:25:22;;;;;;;12.05;6.95;;;;;17.40;100235.00;;;;5006773;28;20431;-76
2021/07/26 09:28:14;;;;;;;15.48;7.78;;;;;17.40;100239.00;;;;5019578;28;20041;-77
2021/07/26 09:30:43;;;;;;;22.42;6.70;;;;;17.40;100228.00;;;;5029036;28;20037;-76
2021/07/26 09:33:26;;;;;;;22.75;7.30;;;;;17.30;100235.00;;;;5029601;28;20029;-77
2021/07/26 09:36:20;;;;;;;14.98;8.25;;;;;17.20;100214.00;;;;5029934;28;20033;-78
2021/07/26 09:38:49;;;;;;;18.55;8.65;;;;;17.20;100206.00;;;;5027497;28;20079;-77
2021/07/26 09:41:16;;;;;;;17.02;7.35;;;;;17.10;100180.00;;;;5028210;28;20091;-76
2021/07/26 09:43:44;;;;;;;11.70;6.55;;;;;17.10;100164.00;;;;5028429;28;20033;-75
2021/07/26 09:46:27;;;;;;;15.80;7.38;;;;;17.10;100192.00;;;;5029203;28;21226;-77
2021/07/26 09:49:15;;;;;;;21.50;11.07;;;;;17.00;100208.00;;;;5028813;28;20470;-76
2021/07/26 09:51:42;;;;;;;26.17;12.48;;;;;17.00;100199.00;;;;5028760;28;20057;-77
2021/07/26 09:54:10;;;;;;;21.75;8.95;;;;;17.00;100219.00;;;;5028629;28;20100;-75
2021/07/26 09:56:37;;;;;;;15.68;9.50;;;;;16.90;100210.00;;;;5028491;28;20036;-75
2021/07/26 09:59:03;;;;;;;12.68;7.80;;;;;16.90;100195.00;;;;5027515;28;20033;-77
2021/07/26 10:01:30;;;;;;;14.35;7.55;;;;;16.90;100214.00;;;;5027622;28;20026;-76
2021/07/26 10:03:58;;;;;;;16.48;7.90;;;;;16.80;100206.00;;;;5028859;28;20073;-77
2021/07/26 10:06:26;;;;;;;17.40;6.90;;;;;16.70;100210.00;;;;5028892;28;20112;-78
2021/07/26 10:08:55;;;;;;;23.30;7.15;;;;;16.80;100215.00;;;;5027993;28;20023;-77
2021/07/26 10:11:22;;;;;;;13.10;6.85;;;;;16.80;100194.00;;;;5027191;28;20025;-79
2021/07/26 10:13:50;;;;;;;18.70;6.88;;;;;16.90;100193.00;;;;5028531;28;20033;-75
2021/07/26 10:16:18;;;;;;;9.77;5.82;;;;;16.90;100192.00;;;;5030237;28;20025;-78
2021/07/26 10:18:49;;;;;;;9.98;5.90;;;;;16.90;100212.00;;;;5046617;28;20030;-75
2021/07/26 10:21:24;;;;;;;12.77;6.18;;;;;17.10;100198.00;;;;5045102;28;20029;-75
2021/07/26 10:23:52;;;;;;;12.45;6.45;;;;;17.20;100214.00;;;;5034788;28;20033;-74
2021/07/26 10:26:21;;;;;;;11.50;5.65;;;;;17.20;100199.00;;;;5027961;28;20048;-78
2021/07/26 10:28:55;;;;;;;16.80;6.70;;;;;17.20;100182.00;;;;5028110;28;20430;-75
2021/07/26 10:31:31;;;;;;;12.65;6.65;;;;;17.30;100214.00;;;;5027627;28;20036;-76
2021/07/26 10:34:02;;;;;;;18.20;6.18;;;;;17.30;100217.00;;;;5027926;28;20060;-75
2021/07/26 10:36:52;;;;;;;13.82;5.85;;;;;17.30;100206.00;;;;5027377;28;20032;-75
2021/07/26 10:39:19;;;;;;;12.98;6.13;;;;;17.30;100223.00;;;;5027842;28;20038;-76
2021/07/26 10:41:46;;;;;;;14.02;6.15;;;;;17.30;100217.00;;;;5026508;28;20041;-76
2021/07/26 10:44:19;;;;;;;15.20;5.63;;;;;17.30;100222.00;;;;5026569;28;20036;-75
2021/07/26 10:46:57;;;;;;;10.07;5.57;;;;;17.30;100212.00;;;;5028661;28;20045;-77
2021/07/26 10:49:43;;;;;;;17.13;6.10;;;;;17.40;100193.00;;;;5027638;28;20048;-77
2021/07/26 10:52:21;;;;;;;14.95;6.30;;;;;17.40;100195.00;;;;5027325;28;20040;-75
2021/07/26 10:54:49;;;;;;;14.00;5.95;;;;;18.30;100161.00;;;;5026031;28;20053;-78
2021/07/26 10:57:46;;;;;;;13.38;5.45;;;;;17.90;100180.00;;;;5028147;28;20041;-75
2021/07/26 11:00:16;;;;;;;13.43;5.90;;;;;17.90;100171.00;;;;5028329;28;20032;-76
2021/07/26 11:02:44;;;;;;;17.65;6.07;;;;;17.90;100152.00;;;;5027669;28;20511;-76
2021/07/26 11:05:29;;;;;;;9.95;5.63;;;;;17.80;100158.00;;;;5027285;28;20047;-76
2021/07/26 11:08:14;;;;;;;9.90;5.75;;;;;17.90;100165.00;;;;5028157;28;20831;-75
2021/07/26 11:10:46;;;;;;;10.07;6.20;;;;;18.10;100165.00;;;;5027786;28;20025;-76
2021/07/26 11:13:14;;;;;;;14.35;5.85;;;;;18.10;100167.00;;;;5026469;28;20095;-76
2021/07/26 11:15:47;;;;;;;10.35;5.80;;;;;18.20;100147.00;;;;5027863;28;20033;-76
2021/07/26 11:18:30;;;;;;;10.57;6.03;;;;;18.20;100146.00;;;;5027850;28;20049;-76
2021/07/26 11:21:02;;;;;;;12.02;5.22;;;;;18.50;100104.00;;;;5026153;28;20040;-77
2021/07/26 11:23:55;;;;;;;13.00;5.90;;;;;19.10;100110.00;;;;5027637;28;20033;-76
2021/07/26 11:26:30;;;;;;;10.23;5.38;;;;;19.50;100107.00;;;;5026449;28;20045;-78
2021/07/26 11:29:11;;;;;;;13.48;5.20;;;;;20.10;100095.00;;;;5028242;28;20021;-79
2021/07/26 11:31:38;;;;;;;9.90;5.40;;;;;20.30;100110.00;;;;5028375;28;20101;-76
2021/07/26 11:34:13;;;;;;;11.48;4.93;;;;;20.10;100121.00;;;;5027397;28;20402;-77
2021/07/26 11:37:09;;;;;;;8.23;4.57;;;;;20.20;100087.00;;;;5026214;28;20033;-78
2021/07/26 11:39:49;;;;;;;11.30;4.80;;;;;20.60;100094.00;;;;5021134;28;20462;-78
2021/07/26 11:42:37;;;;;;;11.18;4.72;;;;;21.00;100042.00;;;;5025326;28;20087;-76
2021/07/26 11:45:07;;;;;;;9.23;4.80;;;;;21.70;100097.00;;;;5026778;28;20526;-79
2021/07/26 11:47:40;;;;;;;10.70;4.28;;;;;22.40;100099.00;;;;5028258;28;20791;-79
2021/07/26 11:50:10;;;;;;;12.27;7.55;;;;;22.10;100128.00;;;;5027698;28;20029;-79
2021/07/26 11:52:38;;;;;;;13.82;9.63;;;;;21.40;100150.00;;;;5027421;28;20590;-76
2021/07/26 11:55:14;;;;;;;15.80;11.65;;;;;20.80;100169.00;;;;5028299;28;20034;-75
2021/07/26 11:57:56;;;;;;;20.23;11.95;;;;;20.60;100176.00;;;;5042643;28;20392;-77
2021/07/26 12:00:32;;;;;;;15.57;10.60;;;;;20.40;100197.00;;;;5028446;28;20036;-77
2021/07/26 12:02:59;;;;;;;15.30;7.57;;;;;20.30;100214.00;;;;5028619;28;20400;-77
2021/07/26 12:05:31;;;;;;;11.38;4.82;;;;;20.20;100203.00;;;;5030868;28;20083;-76
2021/07/26 12:07:59;;;;;;;9.98;4.35;;;;;20.10;100235.00;;;;5045568;28;20068;-77
2021/07/26 12:10:34;;;;;;;10.25;4.32;;;;;19.90;100237.00;;;;5030708;28;20025;-76
2021/07/26 12:13:07;;;;;;;11.32;4.25;;;;;19.80;100244.00;;;;5030160;28;20090;-76
2021/07/26 12:15:34;;;;;;;11.00;4.43;;;;;19.70;100237.00;;;;5030005;28;20045;-75